Time;durP1;ratioP1;P1;durP2;ratioP2;P2;SDS_P1;SDS_P2;PMS_P1;PMS_P2;Temp;Humidity;BMP_temperature;BMP_pressure;BME280_temperature;BME280_humidity;BME280_pressure;Samples;Min_cycle;Max_cycle;Signal;HPM_P1;HPM_P2
2022/01/21 00:00:13;;;;;;;15.88;1.70;;;;;;;-0.92;92.97;102949.38;2055271;28;33792;-70
2022/01/21 00:01:20;;;;;;;9.75;1.25;;;;;;;-0.92;92.16;102949.38;2063084;28;46170;-70
2022/01/21 00:02:24;;;;;;;15.88;1.77;;;;;;;-0.92;92.53;102946.75;2062738;28;44987;-70
2022/01/21 00:03:29;;;;;;;9.13;1.00;;;;;;;-0.95;91.64;102944.84;2062990;28;46101;-70
2022/01/21 00:04:31;;;;;;;13.57;1.33;;;;;;;-0.93;92.17;102951.09;2062951;28;45953;-72
2022/01/21 00:05:32;;;;;;;10.50;1.02;;;;;;;-0.93;92.01;102945.84;2062829;28;44289;-71
2022/01/21 00:06:34;;;;;;;10.70;1.10;;;;;;;-0.93;92.75;102943.22;2063642;28;35115;-71
2022/01/21 00:07:36;;;;;;;13.18;1.15;;;;;;;-0.93;92.23;102947.53;2063146;28;42023;-72
2022/01/21 00:08:42;;;;;;;13.57;1.17;;;;;;;-0.91;92.27;102945.94;2063932;28;44023;-71
2022/01/21 00:09:46;;;;;;;9.23;1.00;;;;;;;-0.93;92.12;102944.91;2064709;28;45996;-71
2022/01/21 00:10:48;;;;;;;9.38;0.70;;;;;;;-0.96;92.68;102946.56;2064579;28;45270;-72
2022/01/21 00:11:50;;;;;;;10.50;1.10;;;;;;;-0.96;92.75;102950.91;2064393;28;46673;-71
2022/01/21 00:12:53;;;;;;;10.50;0.90;;;;;;;-0.96;92.81;102945.66;2064264;28;43280;-71
2022/01/21 00:13:56;;;;;;;8.43;0.70;;;;;;;-0.99;92.00;102938.53;2055900;28;44438;-71
2022/01/21 00:14:58;;;;;;;13.38;1.42;;;;;;;-0.94;92.87;102935.25;2057409;28;26089;-72
2022/01/21 00:16:15;;;;;;;8.55;0.70;;;;;;;-0.92;93.08;102933.59;2064490;28;45565;-70
2022/01/21 00:17:18;;;;;;;11.35;0.63;;;;;;;-0.93;91.94;102948.47;2055246;28;46478;-70
2022/01/21 00:18:20;;;;;;;15.18;1.15;;;;;;;-0.92;92.98;102955.53;2056666;28;30513;-71
2022/01/21 00:19:24;;;;;;;10.40;0.70;;;;;;;-0.87;92.57;102954.06;2055784;28;45547;-70
2022/01/21 00:30:16;;;;;;;8.18;0.68;;;;;;;-0.73;92.89;102956.59;2064036;28;45642;-68
2022/01/21 00:31:17;;;;;;;6.38;0.40;;;;;;;-0.70;92.81;102955.03;2064876;28;44789;-70
2022/01/21 00:32:20;;;;;;;9.55;0.85;;;;;;;-0.72;92.44;102954.00;2055358;28;43307;-70
2022/01/21 00:33:21;;;;;;;8.93;0.93;;;;;;;-0.73;92.66;102951.31;2047820;28;37043;-70
2022/01/21 00:34:23;;;;;;;11.85;0.90;;;;;;;-0.71;92.60;102949.69;2039569;28;42370;-70
2022/01/21 00:35:26;;;;;;;11.38;1.08;;;;;;;-0.67;92.71;102952.53;2047558;28;45419;-70
2022/01/21 00:36:28;;;;;;;13.65;1.42;;;;;;;-0.63;93.51;102944.03;2056187;28;44701;-70
2022/01/21 00:37:31;;;;;;;12.52;1.33;;;;;;;-0.62;92.65;102944.94;2065377;28;20047;-70
2022/01/21 00:38:33;;;;;;;10.15;0.90;;;;;;;-0.59;92.61;102948.63;2054917;28;46586;-70
2022/01/21 00:39:35;;;;;;;12.80;1.30;;;;;;;-0.56;92.48;102944.34;2056835;28;20122;-69
2022/01/21 00:40:37;;;;;;;11.43;1.23;;;;;;;-0.49;92.29;102942.13;2065598;28;20928;-70
2022/01/21 00:41:54;;;;;;;8.45;0.60;;;;;;;-0.48;92.71;102943.97;2056832;28;20122;-69
2022/01/21 00:44:16;;;;;;;10.85;0.65;;;;;;;-0.43;92.64;102950.38;2058115;28;46528;-69
2022/01/21 00:45:20;;;;;;;9.38;0.90;;;;;;;-0.41;91.88;102942.56;2065193;28;43490;-69
2022/01/21 00:46:21;;;;;;;9.63;0.60;;;;;;;-0.40;92.39;102945.25;2064107;28;44138;-69
2022/01/21 00:47:25;;;;;;;11.48;0.75;;;;;;;-0.37;92.50;102951.53;2064384;28;46354;-70
2022/01/21 00:48:27;;;;;;;11.90;0.63;;;;;;;-0.35;91.96;102947.25;2063957;28;42134;-70
2022/01/21 00:49:29;;;;;;;6.50;0.70;;;;;;;-0.33;92.09;102948.25;2064395;28;39090;-69
2022/01/21 00:50:31;;;;;;;9.40;0.50;;;;;;;-0.35;92.11;102942.88;2063809;28;47154;-69
2022/01/21 00:51:34;;;;;;;7.43;0.77;;;;;;;-0.35;92.26;102939.38;2065483;28;20050;-71
2022/01/21 00:52:36;;;;;;;13.40;0.63;;;;;;;-0.39;92.90;102923.41;2064086;28;45165;-71
2022/01/21 00:53:38;;;;;;;9.30;0.73;;;;;;;-0.37;92.73;102926.13;2055690;28;38729;-69
2022/01/21 00:54:40;;;;;;;11.48;0.70;;;;;;;-0.39;92.89;102928.66;2047863;28;28188;-70
2022/01/21 00:55:42;;;;;;;13.50;0.80;;;;;;;-0.37;92.90;102919.97;2055561;28;44614;-71
2022/01/21 00:56:46;;;;;;;12.48;0.65;;;;;;;-0.40;92.99;102924.22;2055756;28;43700;-71
2022/01/21 00:57:48;;;;;;;13.45;1.10;;;;;;;-0.40;92.81;102926.84;2040282;28;26326;-70
2022/01/21 00:58:49;;;;;;;11.88;1.05;;;;;;;-0.39;93.13;102922.50;2047722;28;43789;-71
2022/01/21 00:59:55;;;;;;;11.57;0.80;;;;;;;-0.43;93.35;102915.25;2055447;28;44206;-70
2022/01/21 01:00:57;;;;;;;8.93;0.77;;;;;;;-0.46;93.31;102913.38;2047765;28;27444;-69
2022/01/21 01:01:59;;;;;;;10.75;1.00;;;;;;;-0.48;93.12;102917.66;2039534;28;45785;-70
2022/01/21 01:03:03;;;;;;;8.68;0.93;;;;;;;-0.52;93.79;102914.75;2056031;28;20055;-69
2022/01/21 01:04:05;;;;;;;12.90;0.60;;;;;;;-0.52;93.79;102912.13;2056425;28;20073;-69
2022/01/21 01:05:10;;;;;;;14.35;0.90;;;;;;;-0.54;93.55;102914.66;2056127;28;20058;-69
2022/01/21 01:06:11;;;;;;;9.75;0.70;;;;;;;-0.57;93.96;102917.16;2055255;28;44574;-69
2022/01/21 01:07:16;;;;;;;13.38;0.70;;;;;;;-0.60;93.81;102916.97;2048666;28;20052;-71
2022/01/21 01:08:19;;;;;;;10.52;0.93;;;;;;;-0.63;94.21;102917.72;2055881;28;41263;-68
2022/01/21 01:09:21;;;;;;;12.75;1.00;;;;;;;-0.64;93.49;102922.91;2063413;28;44802;-71
2022/01/21 01:10:37;;;;;;;11.90;0.70;;;;;;;-0.68;94.00;102913.94;2063807;28;45182;-69
2022/01/21 01:20:08;;;;;;;12.32;0.75;;;;;;;-0.84;94.10;102933.22;2039110;29;42086;-69
2022/01/21 01:21:10;;;;;;;7.93;0.45;;;;;;;-0.83;94.11;102931.47;2031993;29;20955;-70
2022/01/21 01:22:14;;;;;;;11.40;0.98;;;;;;;-0.81;94.30;102935.09;2031950;29;20052;-70
2022/01/21 01:23:26;;;;;;;12.70;0.98;;;;;;;-0.79;94.54;102936.06;2055602;28;43966;-70
2022/01/21 01:27:50;;;;;;;;;;;;;;;-0.73;94.13;102925.91;2064412;28;45604;-69
2022/01/21 01:28:33;;;;;;;13.40;0.68;;;;;;;-0.71;94.37;102929.53;2058237;28;44761;-68
2022/01/21 01:29:35;;;;;;;9.48;0.90;;;;;;;-0.68;94.57;102929.72;2056373;28;20149;-69
2022/01/21 01:30:37;;;;;;;13.43;1.00;;;;;;;-0.64;94.41;102926.41;2056156;28;20039;-69
2022/01/21 01:31:38;;;;;;;12.35;0.88;;;;;;;-0.61;94.53;102933.56;2065513;28;20035;-69
2022/01/21 01:32:42;;;;;;;11.98;0.80;;;;;;;-0.61;94.20;102936.19;2064165;28;45929;-69
2022/01/21 01:33:44;;;;;;;10.23;0.70;;;;;;;-0.57;94.33;102938.19;2064261;28;46595;-69
2022/01/21 01:34:46;;;;;;;11.40;0.75;;;;;;;-0.56;93.97;102931.19;2064902;28;20165;-68
2022/01/21 01:35:49;;;;;;;14.88;0.90;;;;;;;-0.51;94.59;102943.78;2054869;28;44464;-69
2022/01/21 01:36:57;;;;;;;12.32;0.70;;;;;;;-0.47;94.38;102943.13;2047480;28;44406;-68
2022/01/21 01:39:43;;;;;;;10.02;0.95;;;;;;;-0.35;93.71;102950.78;2064838;28;20054;-69
2022/01/21 01:40:56;;;;;;;10.10;0.50;;;;;;;-0.31;93.20;102946.59;2056196;28;20054;-69
2022/01/21 01:42:32;;;;;;;11.68;0.80;;;;;;;-0.23;93.10;102937.41;2056424;28;45840;-69
2022/01/21 01:49:59;;;;;;;7.65;0.52;;;;;;;0.02;91.30;102947.50;2064484;28;44626;-69
2022/01/21 01:51:03;;;;;;;14.40;0.70;;;;;;;0.02;91.47;102957.09;2064123;28;34408;-69
2022/01/21 01:52:10;;;;;;;10.55;0.57;;;;;;;0.03;91.12;102946.66;2064006;28;46519;-69
2022/01/21 01:53:11;;;;;;;8.70;0.70;;;;;;;0.01;91.05;102940.41;2064762;28;20047;-71
2022/01/21 01:54:16;;;;;;;15.80;0.90;;;;;;;0.02;90.88;102947.50;2065248;28;20925;-70
2022/01/21 01:55:18;;;;;;;9.55;0.60;;;;;;;0.03;91.46;102953.66;2063994;28;33607;-69
2022/01/21 01:56:26;;;;;;;9.32;0.70;;;;;;;-0.01;90.90;102948.22;2055578;28;40701;-68
2022/01/21 01:57:30;;;;;;;9.73;0.70;;;;;;;-0.02;91.56;102948.13;2048917;28;20047;-69
2022/01/21 01:58:37;;;;;;;12.75;0.85;;;;;;;-0.06;91.28;102951.44;2055770;28;27147;-69
2022/01/21 01:59:39;;;;;;;11.95;0.70;;;;;;;-0.10;91.34;102958.28;2056056;28;44033;-69
2022/01/21 02:00:43;;;;;;;5.47;0.68;;;;;;;-0.10;92.15;102957.38;2055777;28;25977;-69
2022/01/21 02:01:56;;;;;;;13.75;0.95;;;;;;;-0.13;92.27;102957.22;2055275;28;43844;-69
2022/01/21 02:03:10;;;;;;;7.50;0.43;;;;;;;-0.20;91.85;102953.34;2054907;28;44095;-69
2022/01/21 02:04:12;;;;;;;7.80;0.65;;;;;;;-0.24;92.09;102956.63;2055740;28;20913;-69
2022/01/21 02:05:14;;;;;;;12.73;0.90;;;;;;;-0.28;92.77;102957.28;2055223;28;45200;-69
2022/01/21 02:06:16;;;;;;;8.80;0.63;;;;;;;-0.32;92.76;102950.03;2064064;28;20199;-69
2022/01/21 02:07:18;;;;;;;14.05;1.27;;;;;;;-0.31;92.97;102955.38;2063708;28;42688;-69
2022/01/21 02:08:21;;;;;;;10.30;1.10;;;;;;;-0.32;93.33;102952.66;2055428;28;29953;-69
2022/01/21 02:09:24;;;;;;;14.32;0.88;;;;;;;-0.32;92.81;102947.41;2055300;28;36172;-68
2022/01/21 02:10:28;;;;;;;12.05;0.73;;;;;;;-0.33;93.56;102945.59;2054739;28;44149;-70
2022/01/21 02:11:30;;;;;;;15.27;1.00;;;;;;;-0.37;93.69;102946.28;2055487;28;43537;-70
2022/01/21 02:12:31;;;;;;;14.95;0.95;;;;;;;-0.39;93.76;102944.44;2063646;28;43780;-68
2022/01/21 02:13:41;;;;;;;13.70;1.17;;;;;;;-0.41;93.67;102942.56;2054485;28;44372;-68
2022/01/21 02:14:49;;;;;;;11.35;0.70;;;;;;;-0.42;93.75;102933.75;2049027;28;20845;-68
2022/01/21 02:16:04;;;;;;;7.38;0.50;;;;;;;-0.46;93.88;102937.03;2048899;28;20095;-70
2022/01/21 02:17:15;;;;;;;8.73;0.65;;;;;;;-0.48;94.42;102940.44;2050572;28;25424;-69
2022/01/21 02:21:34;;;;;;;14.00;0.57;;;;;;;-0.48;94.55;102941.31;2064146;28;36264;-68
2022/01/21 02:22:40;;;;;;;8.68;0.50;;;;;;;-0.51;94.74;102942.88;2055197;28;45998;-69
2022/01/21 02:23:44;;;;;;;10.57;0.57;;;;;;;-0.53;94.62;102940.16;2057003;28;20047;-69
2022/01/21 02:24:50;;;;;;;9.38;1.02;;;;;;;-0.51;94.88;102949.03;2064236;28;33414;-69
2022/01/21 02:25:54;;;;;;;17.65;1.20;;;;;;;-0.50;94.88;102952.56;2064779;28;20116;-68
2022/01/21 02:26:56;;;;;;;13.73;0.50;;;;;;;-0.48;95.26;102945.69;2063359;28;47787;-68
2022/01/21 02:27:59;;;;;;;10.95;0.68;;;;;;;-0.46;94.79;102947.56;2063948;28;35515;-69
2022/01/21 02:29:07;;;;;;;14.98;0.82;;;;;;;-0.44;95.21;102938.03;2047539;28;20870;-69
2022/01/21 02:30:18;;;;;;;13.88;0.95;;;;;;;-0.39;94.81;102933.94;2049481;28;20223;-70
2022/01/21 02:31:22;;;;;;;15.40;0.75;;;;;;;-0.36;94.93;102934.91;2054986;28;20130;-70
2022/01/21 02:32:23;;;;;;;14.40;0.80;;;;;;;-0.34;94.88;102946.41;2055199;28;35281;-69
2022/01/21 02:33:26;;;;;;;8.27;0.68;;;;;;;-0.36;94.56;102937.53;2064487;28;21070;-69
2022/01/21 02:34:32;;;;;;;8.77;0.55;;;;;;;-0.33;94.09;102948.25;2055579;28;20047;-67
2022/01/21 02:35:34;;;;;;;9.68;1.20;;;;;;;-0.33;94.45;102942.97;2055957;28;20125;-70
2022/01/21 02:36:37;;;;;;;9.25;0.60;;;;;;;-0.31;94.58;102944.84;2046664;28;45481;-68
2022/01/21 02:37:39;;;;;;;10.95;0.63;;;;;;;-0.31;94.25;102952.75;2048027;28;20055;-68
2022/01/21 02:38:43;;;;;;;13.15;1.15;;;;;;;-0.30;94.92;102959.84;2047062;28;35451;-69
2022/01/21 02:39:48;;;;;;;11.98;1.00;;;;;;;-0.29;93.92;102960.75;2047459;28;35299;-69
2022/01/21 02:40:50;;;;;;;13.55;1.08;;;;;;;-0.27;94.26;102974.88;2040305;28;20124;-69
2022/01/21 02:41:55;;;;;;;12.27;0.73;;;;;;;-0.28;93.90;102966.09;2048209;28;22718;-68
2022/01/21 02:42:57;;;;;;;9.00;0.60;;;;;;;-0.28;94.20;102952.03;2047391;28;20211;-70
2022/01/21 02:43:59;;;;;;;9.55;0.52;;;;;;;-0.26;93.91;102950.38;2047066;28;37502;-69
2022/01/21 02:45:06;;;;;;;11.15;0.60;;;;;;;-0.21;94.24;102955.06;2055766;28;20940;-69
2022/01/21 02:46:09;;;;;;;10.30;0.65;;;;;;;-0.20;94.55;102956.91;2047743;28;20156;-69
2022/01/21 02:47:14;;;;;;;15.27;0.75;;;;;;;-0.20;94.28;102962.16;2048518;28;20977;-70
2022/01/21 02:48:25;;;;;;;6.60;0.60;;;;;;;-0.20;94.38;102961.22;2049130;28;21226;-70
2022/01/21 02:49:30;;;;;;;11.07;0.90;;;;;;;-0.20;94.13;102956.91;2056080;28;20055;-69
2022/01/21 02:50:32;;;;;;;12.48;0.90;;;;;;;-0.22;94.06;102963.78;2055520;28;32943;-68
2022/01/21 02:51:35;;;;;;;12.05;0.60;;;;;;;-0.20;93.97;102958.59;2055797;28;20117;-70
2022/01/21 02:52:54;;;;;;;10.88;0.63;;;;;;;-0.16;94.15;102970.19;2047953;28;20182;-70
2022/01/21 02:54:58;;;;;;;7.43;0.60;;;;;;;-0.18;93.77;102958.69;2064345;28;20050;-68
2022/01/21 02:56:00;;;;;;;14.52;0.60;;;;;;;-0.19;93.77;102957.78;2055576;28;20140;-68
2022/01/21 02:57:06;;;;;;;12.27;0.52;;;;;;;-0.19;94.13;102963.06;2055540;28;20054;-68
2022/01/21 02:58:09;;;;;;;10.18;0.70;;;;;;;-0.18;94.22;102959.59;2048471;28;20180;-67
2022/01/21 02:59:11;;;;;;;10.60;0.68;;;;;;;-0.17;94.23;102953.50;2055762;28;20100;-68
2022/01/21 03:00:15;;;;;;;15.70;0.85;;;;;;;-0.16;93.91;102957.03;2064241;28;20132;-69
2022/01/21 03:01:18;;;;;;;11.07;0.85;;;;;;;-0.15;94.06;102957.13;2055562;28;45241;-69
2022/01/21 03:02:20;;;;;;;13.27;0.95;;;;;;;-0.14;94.31;102964.22;2048817;28;20098;-69
2022/01/21 03:03:25;;;;;;;10.55;1.02;;;;;;;-0.15;94.38;102954.50;2049621;28;20044;-69
2022/01/21 03:05:35;;;;;;;11.25;0.80;;;;;;;-0.18;94.29;102953.41;2057778;28;22407;-69
2022/01/21 03:06:38;;;;;;;9.35;0.50;;;;;;;-0.17;94.43;102956.13;2056990;28;21008;-69
2022/01/21 03:07:48;;;;;;;10.07;0.85;;;;;;;-0.16;94.03;102967.56;2049828;28;20082;-69
2022/01/21 03:08:57;;;;;;;8.65;0.65;;;;;;;-0.17;94.11;102956.13;2049920;28;20170;-71
2022/01/21 03:09:59;;;;;;;12.55;0.60;;;;;;;-0.19;93.95;102963.06;2050060;28;43665;-68
2022/01/21 03:11:02;;;;;;;11.88;0.82;;;;;;;-0.20;93.71;102961.22;2051791;28;20048;-67
2022/01/21 03:12:04;;;;;;;9.15;0.80;;;;;;;-0.20;94.12;102958.59;2057123;28;42340;-69
2022/01/21 03:13:06;;;;;;;9.18;1.10;;;;;;;-0.18;94.05;102958.69;2057418;28;20795;-69
2022/01/21 03:14:08;;;;;;;11.18;0.65;;;;;;;-0.20;93.95;102967.41;2057513;28;20043;-68
2022/01/21 03:15:11;;;;;;;9.13;0.55;;;;;;;-0.16;94.13;102967.56;2057841;28;20158;-68
2022/01/21 03:16:13;;;;;;;11.95;0.60;;;;;;;-0.17;94.08;102966.66;2048449;28;44936;-68
2022/01/21 03:17:15;;;;;;;8.93;0.60;;;;;;;-0.14;94.24;102971.19;2049663;28;20101;-71
2022/01/21 03:18:17;;;;;;;10.70;0.63;;;;;;;-0.17;93.99;102964.03;2057410;28;34773;-71
2022/01/21 03:19:21;;;;;;;12.48;0.85;;;;;;;-0.20;94.35;102969.13;2048225;28;42322;-69
2022/01/21 03:20:23;;;;;;;12.10;1.00;;;;;;;-0.21;93.88;102964.69;2047942;28;31503;-71
2022/01/21 03:21:25;;;;;;;7.18;0.45;;;;;;;-0.25;94.31;102958.38;2055508;28;34137;-68
2022/01/21 03:22:26;;;;;;;6.88;0.60;;;;;;;-0.25;94.57;102958.38;2039348;28;20040;-69
2022/01/21 03:23:29;;;;;;;10.98;0.70;;;;;;;-0.27;94.28;102961.72;2047557;28;20059;-68
2022/01/21 03:24:31;;;;;;;11.63;0.93;;;;;;;-0.26;94.69;102964.44;2055514;28;20612;-68
2022/01/21 03:25:36;;;;;;;15.23;0.75;;;;;;;-0.22;94.46;102957.63;2047869;28;20048;-68
2022/01/21 03:26:38;;;;;;;15.57;0.70;;;;;;;-0.24;94.89;102968.06;2047413;28;20075;-68
2022/01/21 03:27:39;;;;;;;18.33;0.80;;;;;;;-0.24;94.71;102959.25;2046936;28;44242;-69
2022/01/21 03:28:43;;;;;;;11.90;0.85;;;;;;;-0.21;94.83;102962.06;2055042;28;20269;-68
2022/01/21 03:29:45;;;;;;;10.73;0.70;;;;;;;-0.24;94.76;102961.91;2055316;28;20051;-69
2022/01/21 03:30:50;;;;;;;10.07;0.47;;;;;;;-0.24;94.32;102959.25;2047569;28;20097;-68
2022/01/21 03:31:52;;;;;;;11.13;0.70;;;;;;;-0.26;94.52;102960.91;2046393;28;44416;-69
2022/01/21 03:32:54;;;;;;;12.82;0.93;;;;;;;-0.26;94.29;102960.91;2047738;28;20051;-67
2022/01/21 03:33:59;;;;;;;13.18;0.93;;;;;;;-0.28;94.74;102957.28;2047621;28;20074;-69
2022/01/21 03:35:03;;;;;;;9.88;0.65;;;;;;;-0.29;94.70;102958.09;2039618;28;20048;-68
2022/01/21 03:36:05;;;;;;;9.57;0.73;;;;;;;-0.33;94.04;102962.28;2032806;28;20048;-69
2022/01/21 03:37:07;;;;;;;15.85;0.68;;;;;;;-0.36;94.56;102953.34;2039082;28;40658;-68
2022/01/21 03:38:08;;;;;;;12.00;0.70;;;;;;;-0.34;95.10;102956.94;2047873;28;20044;-69
2022/01/21 03:39:10;;;;;;;7.55;0.60;;;;;;;-0.34;94.86;102959.56;2047407;28;20949;-68
2022/01/21 03:40:12;;;;;;;9.05;0.63;;;;;;;-0.36;94.40;102964.75;2054990;28;34879;-69
2022/01/21 03:41:17;;;;;;;10.30;0.75;;;;;;;-0.39;95.08;102967.25;2055581;28;20035;-69
2022/01/21 03:42:21;;;;;;;10.07;0.63;;;;;;;-0.43;94.55;102966.16;2047643;28;20192;-69
2022/01/21 03:43:23;;;;;;;8.13;0.35;;;;;;;-0.42;94.54;102965.31;2047936;28;20927;-69
2022/01/21 03:44:26;;;;;;;10.38;0.63;;;;;;;-0.44;94.99;102961.72;2049003;28;20036;-68
2022/01/21 03:45:30;;;;;;;10.63;0.50;;;;;;;-0.46;94.96;102968.63;2049085;28;20052;-69
2022/01/21 03:46:37;;;;;;;8.35;0.32;;;;;;;-0.50;94.69;102964.03;2041547;28;20177;-69
2022/01/21 03:47:41;;;;;;;13.02;0.70;;;;;;;-0.46;94.82;102949.31;2041934;28;20082;-69
2022/01/21 03:48:47;;;;;;;13.57;0.70;;;;;;;-0.49;95.20;102950.03;2056972;28;20969;-69
2022/01/21 03:49:56;;;;;;;8.55;0.43;;;;;;;-0.53;95.12;102955.94;2056660;28;20055;-69
2022/01/21 03:50:58;;;;;;;9.07;0.45;;;;;;;-0.58;95.52;102958.31;2049565;28;20052;-68
2022/01/21 03:52:00;;;;;;;6.68;0.50;;;;;;;-0.62;94.93;102961.59;2048871;28;20039;-69
2022/01/21 03:53:04;;;;;;;10.93;0.77;;;;;;;-0.59;95.75;102950.38;2048924;28;22056;-69
2022/01/21 03:54:07;;;;;;;9.95;0.60;;;;;;;-0.60;95.26;102951.16;2057055;28;20166;-69
2022/01/21 03:55:10;;;;;;;11.30;0.85;;;;;;;-0.58;95.12;102968.84;2057121;28;20055;-69
2022/01/21 03:56:16;;;;;;;8.35;0.90;;;;;;;-0.62;95.46;102953.72;2048482;28;20098;-69
2022/01/21 03:57:21;;;;;;;7.20;1.38;;;;;;;-0.61;95.02;102968.69;2048905;28;39598;-68
2022/01/21 03:58:23;;;;;;;14.48;2.40;;;;;;;-0.60;95.65;102961.69;2056414;28;21012;-68
2022/01/21 03:59:25;;;;;;;11.27;1.42;;;;;;;-0.64;95.53;102963.25;2056811;28;20043;-68
2022/01/21 04:00:40;;;;;;;10.50;2.00;;;;;;;-0.62;95.25;102961.59;2048560;28;20946;-69
2022/01/21 04:01:42;;;;;;;14.23;3.88;;;;;;;-0.62;96.22;102966.88;2056252;28;20050;-68
2022/01/21 04:02:45;;;;;;;16.17;3.40;;;;;;;-0.64;96.02;102963.25;2056996;28;20186;-68
2022/01/21 04:03:52;;;;;;;11.57;3.15;;;;;;;-0.61;95.72;102951.97;2056583;28;20170;-68
2022/01/21 04:04:57;;;;;;;12.30;1.80;;;;;;;-0.57;95.40;102953.97;2048484;28;20151;-68
2022/01/21 04:06:02;;;;;;;10.27;1.05;;;;;;;-0.55;95.59;102965.50;2049321;28;20039;-68
2022/01/21 04:07:07;;;;;;;15.85;1.33;;;;;;;-0.54;95.50;102945.34;2049253;28;20050;-68
2022/01/21 04:08:15;;;;;;;13.63;1.10;;;;;;;-0.55;95.72;102944.44;2049998;28;20879;-68
2022/01/21 04:09:22;;;;;;;10.98;1.10;;;;;;;-0.51;95.20;102938.50;2057331;28;20035;-68
2022/01/21 04:10:24;;;;;;;10.60;0.50;;;;;;;-0.54;95.07;102938.34;2056358;28;20050;-68
2022/01/21 04:11:28;;;;;;;13.60;0.77;;;;;;;-0.55;94.95;102939.19;2056548;28;20137;-68
2022/01/21 04:12:30;;;;;;;12.52;0.90;;;;;;;-0.55;95.28;102941.81;2056649;28;20270;-68
2022/01/21 04:13:34;;;;;;;13.50;0.73;;;;;;;-0.54;95.26;102948.88;2048850;28;20091;-68
2022/01/21 04:14:37;;;;;;;10.50;0.88;;;;;;;-0.57;95.22;102943.47;2049111;28;20167;-68
2022/01/21 04:15:39;;;;;;;13.23;0.93;;;;;;;-0.58;95.46;102946.91;2048649;28;20934;-69
2022/01/21 04:16:41;;;;;;;9.38;0.70;;;;;;;-0.58;95.47;102944.25;2049045;28;20181;-69
2022/01/21 04:17:43;;;;;;;14.20;0.68;;;;;;;-0.59;95.53;102946.00;2048472;28;20047;-69
2022/01/21 04:18:48;;;;;;;10.95;0.75;;;;;;;-0.59;95.10;102947.72;2048670;28;20158;-67
2022/01/21 04:19:50;;;;;;;15.35;1.25;;;;;;;-0.53;95.11;102955.94;2056862;28;20039;-67
2022/01/21 04:20:53;;;;;;;11.40;1.00;;;;;;;-0.54;95.35;102958.50;2056210;28;21052;-68
2022/01/21 04:21:57;;;;;;;10.23;1.30;;;;;;;-0.55;95.71;102965.50;2048923;28;20083;-68
2022/01/21 04:22:58;;;;;;;17.67;1.35;;;;;;;-0.55;95.97;102954.06;2056549;28;20110;-69
2022/01/21 04:24:02;;;;;;;15.75;1.15;;;;;;;-0.51;95.43;102964.81;2056623;28;20162;-68
2022/01/21 04:25:12;;;;;;;10.02;1.05;;;;;;;-0.49;95.29;102965.81;2049826;28;20123;-68
2022/01/21 04:26:14;;;;;;;12.27;0.75;;;;;;;-0.46;95.40;102963.34;2048555;28;20042;-68
2022/01/21 04:27:17;;;;;;;11.20;0.50;;;;;;;-0.45;95.11;102969.53;2048687;28;20933;-67
2022/01/21 04:28:24;;;;;;;12.05;0.93;;;;;;;-0.44;95.50;102961.72;2049220;28;20171;-67
2022/01/21 04:29:26;;;;;;;15.25;0.82;;;;;;;-0.41;95.53;102968.88;2048796;28;20094;-68
2022/01/21 04:30:32;;;;;;;16.15;0.90;;;;;;;-0.40;95.12;102971.56;2049229;28;20051;-68
2022/01/21 04:31:34;;;;;;;16.73;1.23;;;;;;;-0.35;95.62;102976.22;2049286;28;20263;-68
2022/01/21 04:32:36;;;;;;;12.77;1.15;;;;;;;-0.33;95.59;102970.19;2050791;28;21048;-70
2022/01/21 04:33:43;;;;;;;12.55;0.70;;;;;;;-0.32;95.28;102965.81;2058200;28;20039;-69
2022/01/21 04:34:45;;;;;;;10.82;0.88;;;;;;;-0.27;95.72;102975.81;2058158;28;20106;-69
2022/01/21 04:35:48;;;;;;;10.35;0.70;;;;;;;-0.25;95.52;102975.88;2048311;28;20977;-68
2022/01/21 04:36:50;;;;;;;13.55;1.00;;;;;;;-0.21;95.25;102984.03;2048509;28;28241;-69
2022/01/21 04:37:59;;;;;;;11.98;0.77;;;;;;;-0.21;94.91;102983.13;2057759;28;20085;-68
2022/01/21 04:39:03;;;;;;;13.20;1.10;;;;;;;-0.19;95.17;102989.38;2048926;28;20047;-67
2022/01/21 04:40:13;;;;;;;16.15;1.38;;;;;;;-0.16;94.81;102972.81;2041763;28;20055;-68
2022/01/21 04:47:20;;;;;;;9.52;0.77;;;;;;;-0.09;94.77;102964.44;2051248;28;20047;-68
2022/01/21 04:48:26;;;;;;;13.15;0.73;;;;;;;-0.07;95.01;102963.72;2048960;28;20154;-68
2022/01/21 04:49:27;;;;;;;10.57;0.68;;;;;;;-0.07;95.00;102966.34;2056416;28;20046;-68
2022/01/21 04:50:39;;;;;;;11.88;0.55;;;;;;;-0.07;94.45;102963.72;2056262;28;20047;-68
2022/01/21 04:52:02;;;;;;;9.90;0.60;;;;;;;-0.06;94.69;102970.78;2049729;28;20171;-68
2022/01/21 04:53:33;;;;;;;14.20;0.88;;;;;;;-0.06;95.08;102983.03;2050728;28;20147;-68
2022/01/21 04:54:47;;;;;;;14.10;0.80;;;;;;;-0.04;95.00;102974.38;2056021;28;20036;-68
2022/01/21 04:55:49;;;;;;;7.78;0.50;;;;;;;-0.03;95.24;102976.22;2040263;28;20926;-68
2022/01/21 04:56:51;;;;;;;10.38;0.63;;;;;;;-0.05;94.93;102980.50;2048417;28;30038;-68
2022/01/21 04:57:53;;;;;;;10.82;0.80;;;;;;;-0.04;94.79;102974.38;2056135;28;20051;-68
2022/01/21 04:58:56;;;;;;;7.82;0.63;;;;;;;-0.04;94.78;102971.75;2048587;28;20040;-68
2022/01/21 04:59:58;;;;;;;11.40;0.95;;;;;;;-0.04;94.70;102970.84;2056677;28;20036;-67
2022/01/21 05:01:05;;;;;;;16.25;1.30;;;;;;;-0.03;95.07;102967.41;2055860;28;20134;-68
2022/01/21 05:02:07;;;;;;;19.85;0.90;;;;;;;-0.03;95.07;102968.31;2048427;28;20055;-68
2022/01/21 05:03:11;;;;;;;13.77;0.73;;;;;;;-0.04;94.90;102961.22;2048909;28;20150;-68
2022/01/21 05:04:13;;;;;;;12.77;1.13;;;;;;;-0.04;94.95;102968.22;2056221;28;23158;-69
2022/01/21 05:05:17;;;;;;;13.02;1.25;;;;;;;-0.06;94.78;102962.88;2048078;28;20099;-68
2022/01/21 05:06:19;;;;;;;11.00;0.90;;;;;;;-0.06;94.50;102972.50;2041032;28;20048;-68
2022/01/21 05:07:24;;;;;;;12.57;0.60;;;;;;;-0.05;95.12;102966.44;2048394;28;20036;-67
2022/01/21 05:08:39;;;;;;;13.35;0.88;;;;;;;-0.05;95.27;102972.59;2048844;28;20060;-68
2022/01/21 05:09:41;;;;;;;8.10;0.90;;;;;;;-0.02;94.98;102970.13;2049774;28;22635;-69
2022/01/21 05:10:43;;;;;;;11.10;1.00;;;;;;;-0.03;94.94;102975.31;2047954;28;20973;-68
2022/01/21 05:11:46;;;;;;;11.27;1.10;;;;;;;-0.02;94.88;102970.13;2048271;28;20158;-68
2022/01/21 05:12:48;;;;;;;17.67;1.05;;;;;;;-0.02;94.75;102967.50;2055972;28;20925;-69
2022/01/21 05:13:56;;;;;;;7.63;0.60;;;;;;;-0.04;94.69;102970.84;2048295;28;20776;-68
2022/01/21 05:16:28;;;;;;;12.57;0.60;;;;;;;-0.01;95.04;102965.75;2048900;28;20052;-68
2022/01/21 05:17:29;;;;;;;11.90;0.70;;;;;;;-0.02;94.70;102956.97;2050384;28;20201;-69
2022/01/21 05:18:31;;;;;;;16.73;1.25;;;;;;;-0.03;95.21;102955.16;2048515;28;20055;-69
2022/01/21 05:19:57;;;;;;;9.70;0.90;;;;;;;-0.03;95.06;102957.78;2051330;28;20810;-68
2022/01/21 05:21:05;;;;;;;15.60;0.85;;;;;;;-0.03;94.76;102957.78;2056151;28;20039;-69
2022/01/21 05:22:15;;;;;;;13.27;0.80;;;;;;;-0.03;95.11;102960.41;2056453;28;20055;-69
2022/01/21 05:23:22;;;;;;;12.45;0.73;;;;;;;-0.04;94.88;102957.69;2048717;28;21061;-69
2022/01/21 05:24:27;;;;;;;13.65;1.00;;;;;;;-0.05;95.10;102956.78;2048368;28;20048;-68
2022/01/21 05:25:28;;;;;;;14.77;1.00;;;;;;;-0.05;95.05;102945.38;2047868;28;27192;-69
2022/01/21 05:26:39;;;;;;;13.32;1.20;;;;;;;-0.04;95.41;102957.69;2056318;28;20914;-68
2022/01/21 05:27:43;;;;;;;15.10;0.98;;;;;;;-0.04;95.37;102952.44;2049539;28;20118;-68
2022/01/21 05:28:45;;;;;;;10.30;0.88;;;;;;;-0.03;95.44;102939.34;2055796;28;32681;-69
2022/01/21 05:29:59;;;;;;;11.15;0.95;;;;;;;-0.03;94.76;102948.97;2056553;28;20996;-68
2022/01/21 05:31:09;;;;;;;15.20;1.05;;;;;;;-0.01;94.72;102939.44;2055922;28;20052;-68
2022/01/21 05:32:21;;;;;;;10.30;0.90;;;;;;;0.03;95.43;102936.13;2049405;28;20847;-69
2022/01/21 05:33:32;;;;;;;13.70;0.98;;;;;;;0.02;95.08;102950.13;2056445;28;20043;-68
2022/01/21 05:34:53;;;;;;;13.98;0.70;;;;;;;0.05;95.02;102947.63;2056450;28;20166;-68
2022/01/21 05:36:12;;;;;;;14.90;1.42;;;;;;;0.07;94.84;102948.66;2055754;28;20047;-69
2022/01/21 05:37:44;;;;;;;10.93;1.67;;;;;;;0.06;95.22;102938.94;2056135;28;20122;-68
2022/01/21 05:39:11;;;;;;;11.93;1.35;;;;;;;0.09;94.92;102949.63;2039461;29;20816;-67
2022/01/21 05:40:26;;;;;;;9.70;1.20;;;;;;;0.11;95.00;102945.34;2056157;28;20122;-68
2022/01/21 05:41:30;;;;;;;14.57;1.27;;;;;;;0.13;95.15;102954.22;2056093;28;20047;-68
2022/01/21 05:42:52;;;;;;;9.13;0.90;;;;;;;0.12;94.98;102954.16;2056002;28;20051;-68